sensor_id;sensor_type;location;lat;lon;timestamp;P1;durP1;ratioP1;P2;durP2;ratioP2
20557;SDS011;10437;48.156;11.530;2023-08-30T00:01:54;13.50;;;8.68;;
20557;SDS011;10437;48.156;11.530;2023-08-30T00:04:21;11.13;;;8.23;;
20557;SDS011;10437;48.156;11.530;2023-08-30T00:06:49;13.75;;;9.25;;
20557;SDS011;10437;48.156;11.530;2023-08-30T00:09:17;15.70;;;9.63;;
20557;SDS011;10437;48.156;11.530;2023-08-30T00:11:44;15.80;;;9.45;;
20557;SDS011;10437;48.156;11.530;2023-08-30T00:14:11;13.70;;;8.43;;
20557;SDS011;10437;48.156;11.530;2023-08-30T00:16:38;12.90;;;8.55;;
20557;SDS011;10437;48.156;11.530;2023-08-30T00:19:05;13.18;;;8.88;;
20557;SDS011;10437;48.156;11.530;2023-08-30T00:21:32;15.20;;;8.50;;
20557;SDS011;10437;48.156;11.530;2023-08-30T00:24:00;13.90;;;8.35;;
20557;SDS011;10437;48.156;11.530;2023-08-30T00:26:28;13.02;;;8.82;;
20557;SDS011;10437;48.156;11.530;2023-08-30T00:28:55;13.57;;;8.70;;
20557;SDS011;10437;48.156;11.530;2023-08-30T00:31:23;11.48;;;8.27;;
20557;SDS011;10437;48.156;11.530;2023-08-30T00:33:50;13.07;;;8.93;;
20557;SDS011;10437;48.156;11.530;2023-08-30T00:36:17;13.05;;;8.95;;
20557;SDS011;10437;48.156;11.530;2023-08-30T00:38:44;14.07;;;8.57;;
20557;SDS011;10437;48.156;11.530;2023-08-30T00:41:11;12.45;;;8.95;;
20557;SDS011;10437;48.156;11.530;2023-08-30T00:43:40;15.70;;;9.70;;
20557;SDS011;10437;48.156;11.530;2023-08-30T00:46:06;18.15;;;9.73;;
20557;SDS011;10437;48.156;11.530;2023-08-30T00:48:34;11.73;;;8.68;;
20557;SDS011;10437;48.156;11.530;2023-08-30T00:51:01;13.27;;;8.38;;
20557;SDS011;10437;48.156;11.530;2023-08-30T00:53:28;12.32;;;8.38;;
20557;SDS011;10437;48.156;11.530;2023-08-30T00:55:55;12.82;;;8.45;;
20557;SDS011;10437;48.156;11.530;2023-08-30T00:58:22;15.77;;;9.00;;
20557;SDS011;10437;48.156;11.530;2023-08-30T01:00:53;13.43;;;8.68;;
20557;SDS011;10437;48.156;11.530;2023-08-30T01:03:20;13.38;;;9.10;;
20557;SDS011;10437;48.156;11.530;2023-08-30T01:05:48;13.95;;;8.68;;
20557;SDS011;10437;48.156;11.530;2023-08-30T01:08:15;12.82;;;8.45;;
20557;SDS011;10437;48.156;11.530;2023-08-30T01:10:45;13.18;;;8.73;;
20557;SDS011;10437;48.156;11.530;2023-08-30T01:13:19;12.60;;;8.15;;
20557;SDS011;10437;48.156;11.530;2023-08-30T01:15:47;12.90;;;9.18;;
20557;SDS011;10437;48.156;11.530;2023-08-30T01:18:15;12.18;;;8.80;;
20557;SDS011;10437;48.156;11.530;2023-08-30T01:20:45;13.10;;;8.55;;
20557;SDS011;10437;48.156;11.530;2023-08-30T01:23:17;12.45;;;8.85;;
20557;SDS011;10437;48.156;11.530;2023-08-30T01:25:53;11.82;;;8.23;;
20557;SDS011;10437;48.156;11.530;2023-08-30T01:28:31;11.02;;;8.20;;
20557;SDS011;10437;48.156;11.530;2023-08-30T01:31:01;13.98;;;8.73;;
20557;SDS011;10437;48.156;11.530;2023-08-30T01:33:30;12.38;;;8.32;;
20557;SDS011;10437;48.156;11.530;2023-08-30T01:35:59;13.43;;;9.07;;
20557;SDS011;10437;48.156;11.530;2023-08-30T01:38:27;12.63;;;8.65;;
20557;SDS011;10437;48.156;11.530;2023-08-30T01:40:56;11.90;;;8.10;;
20557;SDS011;10437;48.156;11.530;2023-08-30T01:43:25;13.15;;;7.97;;
20557;SDS011;10437;48.156;11.530;2023-08-30T01:45:55;12.32;;;7.43;;
20557;SDS011;10437;48.156;11.530;2023-08-30T01:48:23;12.45;;;7.45;;
20557;SDS011;10437;48.156;11.530;2023-08-30T01:50:51;12.25;;;7.85;;
20557;SDS011;10437;48.156;11.530;2023-08-30T01:53:19;10.73;;;7.47;;
20557;SDS011;10437;48.156;11.530;2023-08-30T01:55:48;10.02;;;7.38;;
20557;SDS011;10437;48.156;11.530;2023-08-30T01:58:14;12.60;;;7.65;;
20557;SDS011;10437;48.156;11.530;2023-08-30T02:00:41;11.65;;;7.38;;
20557;SDS011;10437;48.156;11.530;2023-08-30T02:03:10;11.57;;;8.15;;
20557;SDS011;10437;48.156;11.530;2023-08-30T02:05:39;11.15;;;7.53;;
20557;SDS011;10437;48.156;11.530;2023-08-30T02:08:14;11.75;;;7.53;;
20557;SDS011;10437;48.156;11.530;2023-08-30T02:10:45;9.80;;;6.90;;
20557;SDS011;10437;48.156;11.530;2023-08-30T02:13:18;11.05;;;7.18;;
20557;SDS011;10437;48.156;11.530;2023-08-30T02:15:47;11.00;;;7.35;;
20557;SDS011;10437;48.156;11.530;2023-08-30T02:18:17;12.30;;;7.45;;
20557;SDS011;10437;48.156;11.530;2023-08-30T02:20:44;10.13;;;7.13;;
20557;SDS011;10437;48.156;11.530;2023-08-30T02:23:12;9.32;;;7.03;;
20557;SDS011;10437;48.156;11.530;2023-08-30T02:25:39;12.40;;;7.50;;
20557;SDS011;10437;48.156;11.530;2023-08-30T02:28:06;12.10;;;7.38;;
20557;SDS011;10437;48.156;11.530;2023-08-30T02:30:33;9.05;;;6.70;;
20557;SDS011;10437;48.156;11.530;2023-08-30T02:33:00;11.43;;;7.10;;
20557;SDS011;10437;48.156;11.530;2023-08-30T02:35:29;10.93;;;7.18;;
20557;SDS011;10437;48.156;11.530;2023-08-30T02:37:55;11.32;;;6.82;;
20557;SDS011;10437;48.156;11.530;2023-08-30T02:40:22;9.98;;;7.38;;
20557;SDS011;10437;48.156;11.530;2023-08-30T02:42:49;9.68;;;7.30;;
20557;SDS011;10437;48.156;11.530;2023-08-30T02:45:16;9.27;;;6.32;;
20557;SDS011;10437;48.156;11.530;2023-08-30T02:47:44;9.38;;;6.63;;
20557;SDS011;10437;48.156;11.530;2023-08-30T02:50:11;9.38;;;6.82;;
20557;SDS011;10437;48.156;11.530;2023-08-30T02:52:40;11.23;;;6.70;;
20557;SDS011;10437;48.156;11.530;2023-08-30T02:55:06;9.07;;;6.63;;
20557;SDS011;10437;48.156;11.530;2023-08-30T02:57:34;9.25;;;6.40;;
20557;SDS011;10437;48.156;11.530;2023-08-30T03:00:00;11.43;;;6.07;;
20557;SDS011;10437;48.156;11.530;2023-08-30T03:02:31;8.63;;;6.18;;
20557;SDS011;10437;48.156;11.530;2023-08-30T03:04:57;10.25;;;7.25;;
20557;SDS011;10437;48.156;11.530;2023-08-30T03:07:25;9.55;;;6.80;;
20557;SDS011;10437;48.156;11.530;2023-08-30T03:09:53;9.43;;;6.78;;
20557;SDS011;10437;48.156;11.530;2023-08-30T03:12:20;9.77;;;7.00;;
20557;SDS011;10437;48.156;11.530;2023-08-30T03:14:47;8.80;;;6.20;;
20557;SDS011;10437;48.156;11.530;2023-08-30T03:17:14;8.93;;;6.03;;
20557;SDS011;10437;48.156;11.530;2023-08-30T03:19:41;8.07;;;6.22;;
20557;SDS011;10437;48.156;11.530;2023-08-30T03:22:08;8.82;;;6.20;;
20557;SDS011;10437;48.156;11.530;2023-08-30T03:24:35;8.52;;;6.18;;
20557;SDS011;10437;48.156;11.530;2023-08-30T03:27:04;9.10;;;6.30;;
20557;SDS011;10437;48.156;11.530;2023-08-30T03:29:30;10.95;;;6.28;;
20557;SDS011;10437;48.156;11.530;2023-08-30T03:31:57;9.10;;;5.90;;
20557;SDS011;10437;48.156;11.530;2023-08-30T03:34:25;9.48;;;6.28;;
20557;SDS011;10437;48.156;11.530;2023-08-30T03:36:51;9.70;;;6.18;;
20557;SDS011;10437;48.156;11.530;2023-08-30T03:39:20;8.20;;;6.28;;
20557;SDS011;10437;48.156;11.530;2023-08-30T03:41:47;9.10;;;6.28;;
20557;SDS011;10437;48.156;11.530;2023-08-30T03:44:15;8.05;;;5.70;;
20557;SDS011;10437;48.156;11.530;2023-08-30T03:46:42;9.15;;;6.00;;
20557;SDS011;10437;48.156;11.530;2023-08-30T03:49:09;9.70;;;6.03;;
20557;SDS011;10437;48.156;11.530;2023-08-30T03:51:36;9.25;;;6.10;;
20557;SDS011;10437;48.156;11.530;2023-08-30T03:54:03;10.27;;;6.07;;
20557;SDS011;10437;48.156;11.530;2023-08-30T03:56:29;9.70;;;6.20;;
20557;SDS011;10437;48.156;11.530;2023-08-30T03:58:57;9.68;;;5.65;;
20557;SDS011;10437;48.156;11.530;2023-08-30T04:01:25;7.60;;;5.82;;
20557;SDS011;10437;48.156;11.530;2023-08-30T04:03:52;10.77;;;6.15;;
20557;SDS011;10437;48.156;11.530;2023-08-30T04:06:19;8.60;;;5.88;;
20557;SDS011;10437;48.156;11.530;2023-08-30T04:08:46;12.52;;;5.78;;
20557;SDS011;10437;48.156;11.530;2023-08-30T04:11:14;8.40;;;5.68;;
20557;SDS011;10437;48.156;11.530;2023-08-30T04:13:41;10.50;;;5.75;;
20557;SDS011;10437;48.156;11.530;2023-08-30T04:16:08;9.25;;;6.28;;
20557;SDS011;10437;48.156;11.530;2023-08-30T04:18:36;8.65;;;5.55;;
20557;SDS011;10437;48.156;11.530;2023-08-30T04:21:03;7.50;;;5.65;;
20557;SDS011;10437;48.156;11.530;2023-08-30T04:23:31;8.20;;;5.80;;
20557;SDS011;10437;48.156;11.530;2023-08-30T04:25:58;9.38;;;6.28;;
20557;SDS011;10437;48.156;11.530;2023-08-30T04:28:25;8.20;;;5.80;;
20557;SDS011;10437;48.156;11.530;2023-08-30T04:30:53;9.55;;;6.45;;
20557;SDS011;10437;48.156;11.530;2023-08-30T04:33:19;9.02;;;6.32;;
20557;SDS011;10437;48.156;11.530;2023-08-30T04:35:51;10.05;;;6.80;;
20557;SDS011;10437;48.156;11.530;2023-08-30T04:38:17;9.70;;;6.78;;
20557;SDS011;10437;48.156;11.530;2023-08-30T04:40:45;10.18;;;6.68;;
20557;SDS011;10437;48.156;11.530;2023-08-30T04:43:11;10.38;;;6.68;;
20557;SDS011;10437;48.156;11.530;2023-08-30T04:45:38;10.20;;;6.13;;
20557;SDS011;10437;48.156;11.530;2023-08-30T04:48:05;7.72;;;6.13;;
20557;SDS011;10437;48.156;11.530;2023-08-30T04:50:33;8.63;;;6.38;;
20557;SDS011;10437;48.156;11.530;2023-08-30T04:53:01;11.00;;;6.22;;
20557;SDS011;10437;48.156;11.530;2023-08-30T04:55:28;9.30;;;6.18;;
20557;SDS011;10437;48.156;11.530;2023-08-30T04:57:55;9.85;;;5.88;;
20557;SDS011;10437;48.156;11.530;2023-08-30T05:00:21;8.88;;;6.03;;
20557;SDS011;10437;48.156;11.530;2023-08-30T05:02:50;8.70;;;5.90;;
20557;SDS011;10437;48.156;11.530;2023-08-30T05:05:17;8.40;;;6.15;;
20557;SDS011;10437;48.156;11.530;2023-08-30T05:07:44;7.65;;;5.82;;
20557;SDS011;10437;48.156;11.530;2023-08-30T05:10:12;8.85;;;5.63;;
20557;SDS011;10437;48.156;11.530;2023-08-30T05:12:40;8.77;;;6.20;;
20557;SDS011;10437;48.156;11.530;2023-08-30T05:15:09;9.52;;;6.22;;
20557;SDS011;10437;48.156;11.530;2023-08-30T05:17:36;9.73;;;6.30;;
20557;SDS011;10437;48.156;11.530;2023-08-30T05:20:04;12.05;;;7.15;;
20557;SDS011;10437;48.156;11.530;2023-08-30T05:22:31;9.18;;;6.10;;
20557;SDS011;10437;48.156;11.530;2023-08-30T05:24:58;8.95;;;6.57;;
20557;SDS011;10437;48.156;11.530;2023-08-30T05:27:27;8.40;;;5.88;;
20557;SDS011;10437;48.156;11.530;2023-08-30T05:29:54;16.35;;;11.13;;
20557;SDS011;10437;48.156;11.530;2023-08-30T05:32:21;12.40;;;8.52;;
20557;SDS011;10437;48.156;11.530;2023-08-30T05:34:48;9.45;;;6.57;;
20557;SDS011;10437;48.156;11.530;2023-08-30T05:37:15;8.70;;;6.45;;
20557;SDS011;10437;48.156;11.530;2023-08-30T05:39:42;7.65;;;5.80;;
20557;SDS011;10437;48.156;11.530;2023-08-30T05:42:09;8.95;;;5.75;;
20557;SDS011;10437;48.156;11.530;2023-08-30T05:44:37;10.95;;;6.70;;
20557;SDS011;10437;48.156;11.530;2023-08-30T05:47:04;9.20;;;5.82;;
20557;SDS011;10437;48.156;11.530;2023-08-30T05:49:31;8.57;;;6.28;;
20557;SDS011;10437;48.156;11.530;2023-08-30T05:51:57;11.13;;;6.07;;
20557;SDS011;10437;48.156;11.530;2023-08-30T05:54:24;10.70;;;5.55;;
20557;SDS011;10437;48.156;11.530;2023-08-30T05:56:54;8.88;;;5.45;;
20557;SDS011;10437;48.156;11.530;2023-08-30T05:59:21;7.38;;;5.45;;
20557;SDS011;10437;48.156;11.530;2023-08-30T06:01:50;7.47;;;5.68;;
20557;SDS011;10437;48.156;11.530;2023-08-30T06:04:16;7.28;;;5.60;;
20557;SDS011;10437;48.156;11.530;2023-08-30T06:06:44;8.23;;;5.80;;
20557;SDS011;10437;48.156;11.530;2023-08-30T06:09:11;8.27;;;5.10;;
20557;SDS011;10437;48.156;11.530;2023-08-30T06:11:38;8.35;;;5.18;;
20557;SDS011;10437;48.156;11.530;2023-08-30T06:14:05;7.88;;;5.65;;
20557;SDS011;10437;48.156;11.530;2023-08-30T06:16:32;11.30;;;6.97;;
20557;SDS011;10437;48.156;11.530;2023-08-30T06:19:00;13.73;;;8.88;;
20557;SDS011;10437;48.156;11.530;2023-08-30T06:21:27;8.90;;;6.10;;
20557;SDS011;10437;48.156;11.530;2023-08-30T06:23:54;7.80;;;5.57;;
20557;SDS011;10437;48.156;11.530;2023-08-30T06:26:21;8.43;;;6.03;;
20557;SDS011;10437;48.156;11.530;2023-08-30T06:28:48;10.77;;;5.93;;
20557;SDS011;10437;48.156;11.530;2023-08-30T06:31:15;8.95;;;6.53;;
20557;SDS011;10437;48.156;11.530;2023-08-30T06:33:42;8.25;;;5.88;;
20557;SDS011;10437;48.156;11.530;2023-08-30T06:36:12;8.20;;;5.65;;
20557;SDS011;10437;48.156;11.530;2023-08-30T06:38:41;7.85;;;5.85;;
20557;SDS011;10437;48.156;11.530;2023-08-30T06:41:08;10.10;;;6.68;;
20557;SDS011;10437;48.156;11.530;2023-08-30T06:43:35;8.48;;;6.00;;
20557;SDS011;10437;48.156;11.530;2023-08-30T06:46:03;9.82;;;6.07;;
20557;SDS011;10437;48.156;11.530;2023-08-30T06:48:30;8.85;;;5.70;;
20557;SDS011;10437;48.156;11.530;2023-08-30T06:50:57;8.15;;;5.68;;
20557;SDS011;10437;48.156;11.530;2023-08-30T06:53:26;9.35;;;6.10;;
20557;SDS011;10437;48.156;11.530;2023-08-30T06:55:56;7.13;;;5.53;;
20557;SDS011;10437;48.156;11.530;2023-08-30T06:58:23;8.02;;;5.85;;
20557;SDS011;10437;48.156;11.530;2023-08-30T07:00:50;9.05;;;5.70;;
20557;SDS011;10437;48.156;11.530;2023-08-30T07:03:17;8.18;;;5.63;;
20557;SDS011;10437;48.156;11.530;2023-08-30T07:05:44;8.60;;;6.00;;
20557;SDS011;10437;48.156;11.530;2023-08-30T07:08:12;7.35;;;5.55;;
20557;SDS011;10437;48.156;11.530;2023-08-30T07:10:41;9.80;;;6.25;;
20557;SDS011;10437;48.156;11.530;2023-08-30T07:13:08;9.73;;;5.95;;
20557;SDS011;10437;48.156;11.530;2023-08-30T07:15:37;10.35;;;6.60;;
20557;SDS011;10437;48.156;11.530;2023-08-30T07:18:05;8.60;;;6.38;;
20557;SDS011;10437;48.156;11.530;2023-08-30T07:20:32;11.32;;;6.57;;
20557;SDS011;10437;48.156;11.530;2023-08-30T07:23:00;9.48;;;6.03;;
20557;SDS011;10437;48.156;11.530;2023-08-30T07:25:27;9.30;;;6.28;;
20557;SDS011;10437;48.156;11.530;2023-08-30T07:27:55;10.10;;;6.85;;
20557;SDS011;10437;48.156;11.530;2023-08-30T07:30:22;9.48;;;6.50;;
20557;SDS011;10437;48.156;11.530;2023-08-30T07:32:49;9.77;;;7.30;;
20557;SDS011;10437;48.156;11.530;2023-08-30T07:35:16;11.25;;;7.95;;
20557;SDS011;10437;48.156;11.530;2023-08-30T07:37:43;11.80;;;8.57;;
20557;SDS011;10437;48.156;11.530;2023-08-30T07:40:10;10.40;;;7.13;;
20557;SDS011;10437;48.156;11.530;2023-08-30T07:42:37;9.52;;;7.03;;
20557;SDS011;10437;48.156;11.530;2023-08-30T07:45:06;10.55;;;6.82;;
20557;SDS011;10437;48.156;11.530;2023-08-30T07:47:34;12.20;;;7.22;;
20557;SDS011;10437;48.156;11.530;2023-08-30T07:50:01;10.75;;;7.18;;
20557;SDS011;10437;48.156;11.530;2023-08-30T07:52:28;12.05;;;7.32;;
20557;SDS011;10437;48.156;11.530;2023-08-30T07:54:55;9.48;;;7.57;;
20557;SDS011;10437;48.156;11.530;2023-08-30T07:57:22;11.90;;;7.35;;
20557;SDS011;10437;48.156;11.530;2023-08-30T07:59:49;13.25;;;7.35;;
20557;SDS011;10437;48.156;11.530;2023-08-30T08:02:17;12.18;;;7.80;;
20557;SDS011;10437;48.156;11.530;2023-08-30T08:04:44;11.27;;;8.07;;
20557;SDS011;10437;48.156;11.530;2023-08-30T08:07:11;11.52;;;7.45;;
20557;SDS011;10437;48.156;11.530;2023-08-30T08:09:38;15.85;;;7.50;;
20557;SDS011;10437;48.156;11.530;2023-08-30T08:12:05;11.40;;;7.38;;
20557;SDS011;10437;48.156;11.530;2023-08-30T08:14:32;9.38;;;6.85;;
20557;SDS011;10437;48.156;11.530;2023-08-30T08:16:59;9.65;;;7.30;;
20557;SDS011;10437;48.156;11.530;2023-08-30T08:19:27;10.93;;;7.88;;
20557;SDS011;10437;48.156;11.530;2023-08-30T08:21:54;13.98;;;7.20;;
20557;SDS011;10437;48.156;11.530;2023-08-30T08:24:21;11.02;;;7.55;;
20557;SDS011;10437;48.156;11.530;2023-08-30T08:26:48;11.35;;;7.63;;
20557;SDS011;10437;48.156;11.530;2023-08-30T08:29:16;10.25;;;7.40;;
20557;SDS011;10437;48.156;11.530;2023-08-30T08:31:42;10.82;;;7.63;;
20557;SDS011;10437;48.156;11.530;2023-08-30T08:34:10;11.32;;;8.02;;
20557;SDS011;10437;48.156;11.530;2023-08-30T08:36:39;10.32;;;7.93;;
20557;SDS011;10437;48.156;11.530;2023-08-30T08:39:08;12.02;;;8.23;;
20557;SDS011;10437;48.156;11.530;2023-08-30T08:41:36;11.00;;;7.18;;
20557;SDS011;10437;48.156;11.530;2023-08-30T08:44:06;10.88;;;8.15;;
20557;SDS011;10437;48.156;11.530;2023-08-30T08:46:34;12.77;;;7.97;;
20557;SDS011;10437;48.156;11.530;2023-08-30T08:49:02;14.35;;;7.75;;
20557;SDS011;10437;48.156;11.530;2023-08-30T08:51:34;13.18;;;7.82;;
20557;SDS011;10437;48.156;11.530;2023-08-30T08:54:03;10.13;;;6.90;;
20557;SDS011;10437;48.156;11.530;2023-08-30T08:56:31;12.23;;;6.90;;
20557;SDS011;10437;48.156;11.530;2023-08-30T08:58:59;10.27;;;7.00;;
20557;SDS011;10437;48.156;11.530;2023-08-30T09:01:26;9.18;;;6.70;;
20557;SDS011;10437;48.156;11.530;2023-08-30T09:03:53;8.77;;;6.72;;
20557;SDS011;10437;48.156;11.530;2023-08-30T09:06:20;14.18;;;6.10;;
20557;SDS011;10437;48.156;11.530;2023-08-30T09:08:48;7.30;;;5.57;;
20557;SDS011;10437;48.156;11.530;2023-08-30T09:11:16;11.35;;;5.93;;
20557;SDS011;10437;48.156;11.530;2023-08-30T09:13:44;8.98;;;6.18;;
20557;SDS011;10437;48.156;11.530;2023-08-30T09:16:11;8.80;;;4.68;;
20557;SDS011;10437;48.156;11.530;2023-08-30T09:18:38;8.13;;;4.85;;
20557;SDS011;10437;48.156;11.530;2023-08-30T09:21:05;8.38;;;4.28;;
20557;SDS011;10437;48.156;11.530;2023-08-30T09:23:33;11.50;;;4.97;;
20557;SDS011;10437;48.156;11.530;2023-08-30T09:26:00;6.32;;;4.72;;
20557;SDS011;10437;48.156;11.530;2023-08-30T09:28:30;7.75;;;4.35;;
20557;SDS011;10437;48.156;11.530;2023-08-30T09:30:58;5.60;;;3.55;;
20557;SDS011;10437;48.156;11.530;2023-08-30T09:33:29;6.50;;;3.58;;
20557;SDS011;10437;48.156;11.530;2023-08-30T09:35:57;7.82;;;3.75;;
20557;SDS011;10437;48.156;11.530;2023-08-30T09:38:24;5.68;;;3.58;;
20557;SDS011;10437;48.156;11.530;2023-08-30T09:40:51;6.28;;;3.72;;
20557;SDS011;10437;48.156;11.530;2023-08-30T09:43:18;7.68;;;3.20;;
20557;SDS011;10437;48.156;11.530;2023-08-30T09:45:50;5.40;;;3.10;;
20557;SDS011;10437;48.156;11.530;2023-08-30T09:48:21;5.22;;;2.95;;
20557;SDS011;10437;48.156;11.530;2023-08-30T09:50:49;3.17;;;2.88;;
20557;SDS011;10437;48.156;11.530;2023-08-30T09:53:20;4.18;;;2.97;;
20557;SDS011;10437;48.156;11.530;2023-08-30T09:55:51;3.65;;;2.50;;
20557;SDS011;10437;48.156;11.530;2023-08-30T09:58:19;2.72;;;2.05;;
20557;SDS011;10437;48.156;11.530;2023-08-30T10:00:47;4.88;;;1.88;;
20557;SDS011;10437;48.156;11.530;2023-08-30T10:03:16;6.07;;;2.15;;
20557;SDS011;10437;48.156;11.530;2023-08-30T10:05:44;4.40;;;2.22;;
20557;SDS011;10437;48.156;11.530;2023-08-30T10:08:12;3.38;;;2.42;;
20557;SDS011;10437;48.156;11.530;2023-08-30T10:10:40;2.45;;;1.83;;
20557;SDS011;10437;48.156;11.530;2023-08-30T10:13:06;3.30;;;2.47;;
20557;SDS011;10437;48.156;11.530;2023-08-30T10:15:35;3.90;;;2.00;;
20557;SDS011;10437;48.156;11.530;2023-08-30T10:18:06;3.47;;;2.10;;
20557;SDS011;10437;48.156;11.530;2023-08-30T10:20:35;2.13;;;1.90;;
20557;SDS011;10437;48.156;11.530;2023-08-30T10:23:04;2.40;;;2.05;;
20557;SDS011;10437;48.156;11.530;2023-08-30T10:25:31;2.17;;;1.90;;
20557;SDS011;10437;48.156;11.530;2023-08-30T10:27:59;3.13;;;1.63;;
20557;SDS011;10437;48.156;11.530;2023-08-30T10:30:27;7.40;;;2.22;;
20557;SDS011;10437;48.156;11.530;2023-08-30T10:32:54;7.80;;;1.90;;
20557;SDS011;10437;48.156;11.530;2023-08-30T10:35:23;2.42;;;1.77;;
20557;SDS011;10437;48.156;11.530;2023-08-30T10:37:54;2.45;;;1.75;;
20557;SDS011;10437;48.156;11.530;2023-08-30T10:40:22;2.38;;;1.80;;
20557;SDS011;10437;48.156;11.530;2023-08-30T10:42:58;2.78;;;1.70;;
20557;SDS011;10437;48.156;11.530;2023-08-30T10:45:25;1.85;;;1.42;;
20557;SDS011;10437;48.156;11.530;2023-08-30T10:47:54;4.40;;;1.67;;
20557;SDS011;10437;48.156;11.530;2023-08-30T10:50:29;3.00;;;1.52;;
20557;SDS011;10437;48.156;11.530;2023-08-30T10:52:57;3.70;;;1.50;;
20557;SDS011;10437;48.156;11.530;2023-08-30T10:55:24;3.83;;;1.80;;
20557;SDS011;10437;48.156;11.530;2023-08-30T10:57:58;4.63;;;1.75;;
20557;SDS011;10437;48.156;11.530;2023-08-30T11:00:27;3.15;;;1.65;;
20557;SDS011;10437;48.156;11.530;2023-08-30T11:02:55;2.35;;;1.42;;
20557;SDS011;10437;48.156;11.530;2023-08-30T11:05:23;3.97;;;1.73;;
20557;SDS011;10437;48.156;11.530;2023-08-30T11:07:52;1.60;;;1.20;;
20557;SDS011;10437;48.156;11.530;2023-08-30T11:10:20;3.47;;;1.38;;
20557;SDS011;10437;48.156;11.530;2023-08-30T11:12:48;4.90;;;1.45;;
20557;SDS011;10437;48.156;11.530;2023-08-30T11:15:15;3.38;;;1.27;;
20557;SDS011;10437;48.156;11.530;2023-08-30T11:17:42;3.65;;;1.50;;
20557;SDS011;10437;48.156;11.530;2023-08-30T11:20:10;3.83;;;1.40;;
20557;SDS011;10437;48.156;11.530;2023-08-30T11:22:39;2.28;;;1.42;;
20557;SDS011;10437;48.156;11.530;2023-08-30T11:25:09;3.90;;;1.30;;
20557;SDS011;10437;48.156;11.530;2023-08-30T11:27:37;5.20;;;1.25;;
20557;SDS011;10437;48.156;11.530;2023-08-30T11:30:05;2.58;;;1.08;;
20557;SDS011;10437;48.156;11.530;2023-08-30T11:32:33;1.40;;;1.00;;
20557;SDS011;10437;48.156;11.530;2023-08-30T11:35:00;1.63;;;1.30;;
20557;SDS011;10437;48.156;11.530;2023-08-30T11:37:28;4.55;;;1.08;;
20557;SDS011;10437;48.156;11.530;2023-08-30T11:39:55;3.38;;;1.45;;
20557;SDS011;10437;48.156;11.530;2023-08-30T11:42:24;1.40;;;1.02;;
20557;SDS011;10437;48.156;11.530;2023-08-30T11:44:51;6.40;;;1.60;;
20557;SDS011;10437;48.156;11.530;2023-08-30T11:47:19;4.63;;;0.80;;
20557;SDS011;10437;48.156;11.530;2023-08-30T11:49:47;2.47;;;1.40;;
20557;SDS011;10437;48.156;11.530;2023-08-30T11:52:14;3.83;;;1.10;;
20557;SDS011;10437;48.156;11.530;2023-08-30T11:54:42;1.80;;;1.30;;
20557;SDS011;10437;48.156;11.530;2023-08-30T11:57:09;3.13;;;1.30;;
20557;SDS011;10437;48.156;11.530;2023-08-30T11:59:37;3.17;;;1.45;;
20557;SDS011;10437;48.156;11.530;2023-08-30T12:02:04;2.63;;;1.30;;
20557;SDS011;10437;48.156;11.530;2023-08-30T12:04:32;1.85;;;1.40;;
20557;SDS011;10437;48.156;11.530;2023-08-30T12:06:59;4.22;;;1.55;;
20557;SDS011;10437;48.156;11.530;2023-08-30T12:09:29;2.45;;;1.83;;
20557;SDS011;10437;48.156;11.530;2023-08-30T12:12:04;2.17;;;1.70;;
20557;SDS011;10437;48.156;11.530;2023-08-30T12:14:34;2.22;;;1.50;;
20557;SDS011;10437;48.156;11.530;2023-08-30T12:17:03;1.98;;;1.25;;
20557;SDS011;10437;48.156;11.530;2023-08-30T12:19:30;2.17;;;1.23;;
20557;SDS011;10437;48.156;11.530;2023-08-30T12:22:03;2.67;;;1.48;;
20557;SDS011;10437;48.156;11.530;2023-08-30T12:24:40;2.08;;;1.30;;
20557;SDS011;10437;48.156;11.530;2023-08-30T12:27:07;2.78;;;1.05;;
20557;SDS011;10437;48.156;11.530;2023-08-30T12:29:34;2.17;;;1.25;;
20557;SDS011;10437;48.156;11.530;2023-08-30T12:32:03;4.78;;;1.50;;
20557;SDS011;10437;48.156;11.530;2023-08-30T12:34:31;1.98;;;1.35;;
20557;SDS011;10437;48.156;11.530;2023-08-30T12:36:58;2.97;;;1.30;;
20557;SDS011;10437;48.156;11.530;2023-08-30T12:39:27;2.90;;;1.05;;
20557;SDS011;10437;48.156;11.530;2023-08-30T12:41:54;3.35;;;1.33;;
20557;SDS011;10437;48.156;11.530;2023-08-30T12:44:21;1.60;;;0.90;;
20557;SDS011;10437;48.156;11.530;2023-08-30T12:46:49;1.92;;;1.15;;
20557;SDS011;10437;48.156;11.530;2023-08-30T12:49:17;3.53;;;1.05;;
20557;SDS011;10437;48.156;11.530;2023-08-30T12:51:44;3.25;;;1.05;;
20557;SDS011;10437;48.156;11.530;2023-08-30T12:54:11;2.70;;;1.10;;
20557;SDS011;10437;48.156;11.530;2023-08-30T12:56:38;1.83;;;1.00;;
20557;SDS011;10437;48.156;11.530;2023-08-30T12:59:05;1.92;;;1.00;;
20557;SDS011;10437;48.156;11.530;2023-08-30T13:01:32;3.53;;;1.10;;
20557;SDS011;10437;48.156;11.530;2023-08-30T13:03:59;2.05;;;1.20;;
20557;SDS011;10437;48.156;11.530;2023-08-30T13:06:28;1.20;;;0.93;;
20557;SDS011;10437;48.156;11.530;2023-08-30T13:08:54;1.75;;;0.98;;
20557;SDS011;10437;48.156;11.530;2023-08-30T13:11:22;2.67;;;1.30;;
20557;SDS011;10437;48.156;11.530;2023-08-30T13:13:51;4.68;;;1.35;;
20557;SDS011;10437;48.156;11.530;2023-08-30T13:16:18;3.40;;;0.98;;
20557;SDS011;10437;48.156;11.530;2023-08-30T13:18:45;2.22;;;1.20;;
20557;SDS011;10437;48.156;11.530;2023-08-30T13:21:12;3.13;;;1.40;;
20557;SDS011;10437;48.156;11.530;2023-08-30T13:23:40;3.20;;;1.67;;
20557;SDS011;10437;48.156;11.530;2023-08-30T13:26:07;1.65;;;1.40;;
20557;SDS011;10437;48.156;11.530;2023-08-30T13:28:34;2.70;;;1.40;;
20557;SDS011;10437;48.156;11.530;2023-08-30T13:31:01;4.07;;;1.85;;
20557;SDS011;10437;48.156;11.530;2023-08-30T13:33:28;1.67;;;1.50;;
20557;SDS011;10437;48.156;11.530;2023-08-30T13:35:55;3.15;;;1.52;;
20557;SDS011;10437;48.156;11.530;2023-08-30T13:38:23;3.88;;;1.50;;
20557;SDS011;10437;48.156;11.530;2023-08-30T13:40:57;2.85;;;1.63;;
20557;SDS011;10437;48.156;11.530;2023-08-30T13:43:24;2.17;;;1.65;;
20557;SDS011;10437;48.156;11.530;2023-08-30T13:45:56;6.60;;;1.80;;
20557;SDS011;10437;48.156;11.530;2023-08-30T13:48:23;5.88;;;1.45;;
20557;SDS011;10437;48.156;11.530;2023-08-30T13:50:50;2.22;;;1.35;;
20557;SDS011;10437;48.156;11.530;2023-08-30T13:53:18;1.95;;;1.13;;
20557;SDS011;10437;48.156;11.530;2023-08-30T13:55:45;2.33;;;1.63;;
20557;SDS011;10437;48.156;11.530;2023-08-30T13:58:14;2.65;;;1.10;;
20557;SDS011;10437;48.156;11.530;2023-08-30T14:00:41;5.10;;;1.70;;
20557;SDS011;10437;48.156;11.530;2023-08-30T14:03:09;1.52;;;1.20;;
20557;SDS011;10437;48.156;11.530;2023-08-30T14:05:36;5.30;;;1.48;;
20557;SDS011;10437;48.156;11.530;2023-08-30T14:08:05;2.75;;;1.50;;
20557;SDS011;10437;48.156;11.530;2023-08-30T14:10:32;1.50;;;1.40;;
20557;SDS011;10437;48.156;11.530;2023-08-30T14:12:59;1.25;;;1.10;;
20557;SDS011;10437;48.156;11.530;2023-08-30T14:15:27;2.08;;;1.48;;
20557;SDS011;10437;48.156;11.530;2023-08-30T14:17:54;2.40;;;1.40;;
20557;SDS011;10437;48.156;11.530;2023-08-30T14:20:20;3.53;;;1.50;;
20557;SDS011;10437;48.156;11.530;2023-08-30T14:22:48;2.05;;;1.50;;
20557;SDS011;10437;48.156;11.530;2023-08-30T14:25:15;2.75;;;1.38;;
20557;SDS011;10437;48.156;11.530;2023-08-30T14:27:42;1.80;;;1.30;;
20557;SDS011;10437;48.156;11.530;2023-08-30T14:30:09;4.78;;;1.27;;
20557;SDS011;10437;48.156;11.530;2023-08-30T14:32:38;2.35;;;1.35;;
20557;SDS011;10437;48.156;11.530;2023-08-30T14:35:05;2.75;;;1.15;;